Aérodrome :
LOGIN :

S'inscrire | Disclaimer

   EN    FR    IT 

 










Légende :    VFR   VFR Marginal   IFR   IFR Intensif   IFR Très Intensif
Visi : 
Plafond : 
>= 8 km
>= 3000ft
5 à 8 km
1000 à 3000 ft
1500m à 5 km
500 à 1000 ft
800 à 1500m
200 à 500 ft
< 800m
< 200 ft
Symboles :   Orages  Brouillard  Fortes neiges  Fortes précipitations  Vent > 20 kt
SIGMETs :   Divers  Orages  Givrage  Turbulence  Onde Orograph.  Cendres Volcan.







- Altitude de l'aérodrome : 778 ft
- Code IATA : BRQ


LKTB - Brno-Turany

DERNIER METAR :
  • 300230Z 01004KT CAVOK 06/02 Q1019 NOSIG

METARs EXPIRÉS :
  • 300200Z 06004KT CAVOK 07/03 Q1019 NOSIG
  • 300130Z 06005KT CAVOK 07/03 Q1019 NOSIG
  • 300100Z 01004KT CAVOK 07/02 Q1019 NOSIG
  • 300030Z VRB01KT CAVOK 07/02 Q1019 NOSIG
  • 300000Z 05004KT CAVOK 07/03 Q1018 NOSIG

TAF TAF LKTB
Valide du 30 à 00h jusqu'au 01 à 06h UTC


292300Z 3000/0106 VRB02KT CAVOK
BECMG 3000/3002 5000 BR NSC
TEMPO 3002/3005 2000 BR SCT010
PROB30
TEMPO 3002/3005 1200 BCFG SCT005
BECMG 3005/3008 07010KT 9999 SCT035
TEMPO 3009/0100 09012G22KT BKN025
BECMG 0100/0103 11010KT
Pas de NOTAMs connus pour ce terrain.



MET'MAP, la Météo Aéronautique d'un coup d'oeil ! - Copyright ORBIFLY Décembre 2007 - Disclaimer

ORBIFLY MET'MAP TEAM :

Programmation & Développement : Alexandra Zaïnal
Conception & Développement : Baudouin d'Aumeries
Co-Programmation & Développement : Marc-Olivier Méhu
Soutien technique & logistique : Manuel Goepfert

Contact : metmap@orbifly.com




SOURCES & CREDITS :

   NOAA